Time;durP1;ratioP1;P1;durP2;ratioP2;P2;SDS_P1;SDS_P2;PMS_P1;PMS_P2;Temp;Humidity;BMP_temperature;BMP_pressure;BME280_temperature;BME280_humidity;BME280_pressure;Samples;Min_cycle;Max_cycle;Signal;HPM_P1;HPM_P2
2023/01/21 00:00:01;;;;;;;10.07;6.35;;;-1.70;99.90;;;-2.75;100.00;97550.94;5023941;28;20056;-50
2023/01/21 00:02:26;;;;;;;13.88;6.70;;;-1.70;99.90;;;-2.75;100.00;97554.38;5021084;28;20124;-50
2023/01/21 00:04:52;;;;;;;12.02;6.05;;;-1.60;99.90;;;-2.74;100.00;97555.28;5026925;28;20349;-50
2023/01/21 00:07:18;;;;;;;10.05;5.70;;;-1.60;99.90;;;-2.72;100.00;97556.16;5021819;28;20945;-54
2023/01/21 00:09:43;;;;;;;9.85;5.63;;;-1.60;99.90;;;-2.71;100.00;97561.34;5025467;28;20409;-49
2023/01/21 00:12:09;;;;;;;11.52;6.28;;;-1.60;99.90;;;-2.69;100.00;97563.97;5030290;28;20032;-50
2023/01/21 00:14:35;;;;;;;12.23;6.07;;;-1.60;99.90;;;-2.67;100.00;97563.97;5027574;28;20061;-47
2023/01/21 00:17:00;;;;;;;8.10;5.70;;;-1.60;99.90;;;-2.65;100.00;97564.91;5025985;28;20039;-50
2023/01/21 00:19:28;;;;;;;10.35;5.57;;;-1.60;99.90;;;-2.66;100.00;97564.00;5063058;22;20458;-37
2023/01/21 00:21:54;;;;;;;9.52;5.07;;;-1.60;99.90;;;-2.73;100.00;97557.88;5048886;28;20050;-36
2023/01/21 00:24:21;;;;;;;10.60;5.53;;;-1.60;99.90;;;-2.67;100.00;97567.44;5047378;28;20044;-37
2023/01/21 00:26:47;;;;;;;9.02;5.07;;;-1.60;99.90;;;-2.67;100.00;97563.97;5045067;28;20046;-37
2023/01/21 00:29:13;;;;;;;10.52;5.10;;;-1.60;99.90;;;-2.66;100.00;97570.88;5026720;28;20025;-37
2023/01/21 00:31:39;;;;;;;10.32;5.53;;;-1.60;99.90;;;-2.66;100.00;97573.47;5023688;28;20461;-37
2023/01/21 00:34:04;;;;;;;8.25;5.38;;;-1.60;99.90;;;-2.65;100.00;97573.50;5012445;28;20037;-37
2023/01/21 00:36:30;;;;;;;10.40;5.50;;;-1.60;99.90;;;-2.66;100.00;97568.31;5020439;28;20111;-37
2023/01/21 00:38:56;;;;;;;8.50;5.43;;;-1.60;99.90;;;-2.65;100.00;97570.91;5022322;28;20522;-37
2023/01/21 00:41:23;;;;;;;7.15;4.95;;;-1.60;99.90;;;-2.64;100.00;97575.22;5012582;28;20095;-37
2023/01/21 00:43:49;;;;;;;7.85;4.78;;;-1.60;99.90;;;-2.64;100.00;97575.22;5022831;28;20036;-37
2023/01/21 00:46:15;;;;;;;8.13;5.32;;;-1.60;99.90;;;-2.63;100.00;97581.28;5023522;28;20163;-37
2023/01/21 00:48:41;;;;;;;8.32;5.18;;;-1.60;99.90;;;-2.61;100.00;97582.19;5021008;28;20025;-37
2023/01/21 00:51:08;;;;;;;9.20;5.38;;;-1.60;99.90;;;-2.60;100.00;97577.03;5026164;28;20030;-36
2023/01/21 00:53:37;;;;;;;9.57;5.18;;;-1.60;99.90;;;-2.64;100.00;97566.63;5025907;28;20095;-37
2023/01/21 00:56:09;;;;;;;10.20;5.30;;;-1.50;99.90;;;-2.58;100.00;97583.09;5023086;28;20033;-37
2023/01/21 00:58:35;;;;;;;9.40;5.03;;;-1.50;99.90;;;-2.57;100.00;97583.97;5021493;28;20033;-37
2023/01/21 01:01:10;;;;;;;9.30;5.43;;;-1.50;99.90;;;-2.55;100.00;97584.84;5027385;28;20033;-37
2023/01/21 01:03:39;;;;;;;8.98;5.40;;;-1.50;99.90;;;-2.54;100.00;97582.31;5024210;28;20033;-37
2023/01/21 01:06:18;;;;;;;9.30;5.35;;;-1.50;99.90;;;-2.55;100.00;97582.28;5025546;28;20041;-37
2023/01/21 01:08:45;;;;;;;10.93;5.53;;;-1.50;99.90;;;-2.54;100.00;97586.59;5026899;28;20025;-37
2023/01/21 01:11:12;;;;;;;7.97;5.32;;;-1.50;99.90;;;-2.60;100.00;97581.31;5025589;28;20792;-37
2023/01/21 01:13:39;;;;;;;9.02;5.93;;;-1.50;99.90;;;-2.56;100.00;97593.47;5028580;28;20029;-36
2023/01/21 01:16:05;;;;;;;8.48;6.13;;;-1.50;99.90;;;-2.63;100.00;97581.28;5008045;28;20033;-37
2023/01/21 01:18:35;;;;;;;10.23;6.05;;;-1.50;99.90;;;-2.58;100.00;97593.44;5024824;28;20043;-37
2023/01/21 01:21:02;;;;;;;10.88;6.75;;;-1.50;99.90;;;-2.63;100.00;97589.88;5027972;28;20033;-36
2023/01/21 01:23:28;;;;;;;14.13;7.18;;;-1.50;99.90;;;-2.62;100.00;97589.06;5026955;28;20452;-37
2023/01/21 01:25:57;;;;;;;12.18;7.45;;;-1.50;99.90;;;-2.61;100.00;97595.09;5025923;28;20045;-37
2023/01/21 01:28:22;;;;;;;11.20;6.93;;;-1.50;99.90;;;-2.63;100.00;97602.81;5006373;28;20614;-37
2023/01/21 01:30:48;;;;;;;12.80;7.20;;;-1.50;99.90;;;-2.59;100.00;97598.56;5025514;28;20026;-37
2023/01/21 01:33:14;;;;;;;11.50;6.75;;;-1.50;99.90;;;-2.61;100.00;97611.44;5026559;28;20543;-37
2023/01/21 01:35:40;;;;;;;10.98;6.57;;;-1.50;99.90;;;-2.62;100.00;97609.72;5023064;28;20057;-36
2023/01/21 01:38:08;;;;;;;11.73;7.53;;;-1.50;99.90;;;-2.61;100.00;97608.84;5024431;28;20362;-37
2023/01/21 01:40:34;;;;;;;13.38;7.65;;;-1.50;99.90;;;-2.64;100.00;97608.78;5028378;28;20037;-37
2023/01/21 01:42:59;;;;;;;15.00;7.20;;;-1.60;99.90;;;-2.64;100.00;97603.63;5025487;28;20060;-37
2023/01/21 01:45:25;;;;;;;11.35;7.15;;;-1.60;99.90;;;-2.65;100.00;97609.66;5025946;28;20504;-37
2023/01/21 01:47:58;;;;;;;10.65;6.90;;;-1.60;99.90;;;-2.71;100.00;97606.94;5023938;28;20036;-37
2023/01/21 01:50:31;;;;;;;11.82;6.28;;;-1.60;99.90;;;-2.82;100.00;97608.47;5005522;28;20579;-36
2023/01/21 01:53:00;;;;;;;10.93;6.40;;;-1.70;99.90;;;-2.95;100.00;97613.38;5022835;28;20021;-37
2023/01/21 01:55:32;;;;;;;11.60;6.03;;;-1.80;99.90;;;-3.13;100.00;97602.69;5018981;28;20044;-36
2023/01/21 01:57:57;;;;;;;;;;;-1.90;99.90;;;-3.22;100.00;97616.28;5025832;28;20112;-37
2023/01/21 02:00:24;;;;;;;10.57;6.07;;;-2.10;99.90;;;-3.34;100.00;97616.91;5024013;28;20359;-36
2023/01/21 02:05:39;;;;;;;10.02;6.03;;;-2.30;99.90;;;-3.61;100.00;97621.44;5005490;28;20102;-36
2023/01/21 02:08:06;;;;;;;9.40;5.88;;;-2.50;99.90;;;-3.72;100.00;97624.66;5008869;28;20327;-36
2023/01/21 02:10:33;;;;;;;9.98;6.25;;;-2.60;99.90;;;-3.80;100.00;97623.63;5004067;28;20032;-37
2023/01/21 02:12:59;;;;;;;10.55;5.88;;;-2.60;99.90;;;-4.09;100.00;97603.19;5023542;28;20036;-36
2023/01/21 02:15:35;;;;;;;12.23;6.97;;;-2.70;99.90;;;-3.98;100.00;97631.78;5007120;28;20675;-36
2023/01/21 02:18:32;;;;;;;12.25;7.50;;;-2.80;99.90;;;-4.08;100.00;97638.41;5005832;28;20034;-36
2023/01/21 02:21:45;;;;;;;11.63;6.88;;;-2.90;99.90;;;-4.18;100.00;97638.13;5006506;28;20036;-37
2023/01/21 02:24:39;;;;;;;10.68;6.30;;;-3.00;99.90;;;-4.24;100.00;97636.28;5016042;28;20037;-36
2023/01/21 02:27:35;;;;;;;13.68;7.03;;;-3.10;99.90;;;-4.31;100.00;97640.41;5018690;28;20042;-36
2023/01/21 02:30:26;;;;;;;9.68;5.82;;;-3.10;99.90;;;-4.39;100.00;97646.22;5017015;28;20365;-36
2023/01/21 02:33:12;;;;;;;10.77;6.50;;;-3.20;99.90;;;-4.43;100.00;97647.84;5015223;28;20075;-36
2023/01/21 02:36:09;;;;;;;11.80;7.28;;;-3.30;99.90;;;-4.48;100.00;97646.84;5019098;28;20025;-36
2023/01/21 02:39:15;;;;;;;11.52;6.65;;;-3.30;99.90;;;-4.56;100.00;97651.78;5002678;28;20037;-36
2023/01/21 02:42:16;;;;;;;12.05;6.60;;;-3.30;99.90;;;-4.59;100.00;97651.72;5020537;28;20033;-36
2023/01/21 02:45:16;;;;;;;11.10;6.13;;;-3.40;99.90;;;-4.70;100.00;97647.97;5017134;28;20098;-36
2023/01/21 02:47:50;;;;;;;10.85;6.35;;;-3.40;99.90;;;-4.66;100.00;97657.53;5007958;28;20139;-36
2023/01/21 02:50:28;;;;;;;10.98;6.30;;;-3.50;99.90;;;-4.72;100.00;97657.34;5024702;28;20033;-36
2023/01/21 02:52:59;;;;;;;9.55;5.70;;;-3.50;99.90;;;-4.76;100.00;97660.69;5022353;28;20028;-36
2023/01/21 02:55:33;;;;;;;10.52;6.20;;;-3.60;99.90;;;-4.81;100.00;97661.44;4989736;28;20040;-37
2023/01/21 02:58:08;;;;;;;10.73;5.95;;;-3.60;99.90;;;-4.81;100.00;97664.00;5005863;28;20057;-36
2023/01/21 03:00:55;;;;;;;13.63;6.75;;;-3.60;99.90;;;-4.81;100.00;97661.44;4996261;28;20082;-36
2023/01/21 03:03:33;;;;;;;13.98;6.88;;;-3.70;99.90;;;-4.84;100.00;97663.91;5026713;28;20051;-37
2023/01/21 03:06:28;;;;;;;9.70;6.15;;;-3.70;99.90;;;-4.88;100.00;97667.22;5005846;28;20037;-36
2023/01/21 03:09:13;;;;;;;12.25;6.78;;;-3.70;99.90;;;-4.96;100.00;97663.56;5023759;28;20033;-36
2023/01/21 03:11:46;;;;;;;11.45;6.40;;;-3.80;99.90;;;-5.01;100.00;97671.16;5000660;28;20037;-36
2023/01/21 03:17:48;;;;;;;11.38;6.22;;;-3.80;99.90;;;-5.07;100.00;97673.53;5008782;28;20389;-36
2023/01/21 03:20:51;;;;;;;10.57;6.85;;;-3.90;99.90;;;-5.11;100.00;97676.88;5020817;28;20044;-36
2023/01/21 03:23:29;;;;;;;13.30;6.13;;;-3.90;99.90;;;-5.13;100.00;97675.06;4994160;28;20180;-36
2023/01/21 03:25:57;;;;;;;11.38;6.63;;;-3.90;99.90;;;-5.14;100.00;97684.47;5005458;28;20043;-36
2023/01/21 03:28:30;;;;;;;10.38;6.95;;;-3.90;99.90;;;-5.14;100.00;97673.34;5000024;28;20519;-36
2023/01/21 03:31:24;;;;;;;10.93;6.13;;;-4.00;99.90;;;-5.15;100.00;97687.00;5006866;28;20500;-37
2023/01/21 03:33:55;;;;;;;11.02;6.05;;;-4.00;99.90;;;-5.26;100.00;97671.25;5009464;28;20983;-37
2023/01/21 03:37:03;;;;;;;10.88;7.03;;;-4.00;99.90;;;-5.25;100.00;97688.44;4997022;28;20040;-36
2023/01/21 03:40:03;;;;;;;12.00;6.97;;;-4.00;99.90;;;-5.25;100.00;97679.03;5013615;28;20041;-36
2023/01/21 03:42:28;;;;;;;10.40;6.80;;;-4.00;99.90;;;-5.26;100.00;97679.88;5016132;28;20041;-36
2023/01/21 03:44:54;;;;;;;13.27;7.07;;;-4.10;99.90;;;-5.28;100.00;97683.22;5007248;28;20036;-35
2023/01/21 03:47:27;;;;;;;12.02;7.00;;;-4.10;99.90;;;-5.29;100.00;97678.88;5024281;28;20036;-36
2023/01/21 03:50:21;;;;;;;14.82;7.32;;;-4.10;99.90;;;-5.28;100.00;97684.06;5012322;28;20029;-36
2023/01/21 03:52:47;;;;;;;11.55;6.95;;;-4.10;99.90;;;-5.27;100.00;97685.81;5021405;28;20500;-37
2023/01/21 03:55:16;;;;;;;13.45;6.68;;;-4.10;99.90;;;-5.33;100.00;97685.63;5005821;28;20063;-36
2023/01/21 03:57:42;;;;;;;13.60;6.85;;;-4.10;99.90;;;-5.39;100.00;97695.72;5025357;28;20437;-36
2023/01/21 04:00:09;;;;;;;13.05;7.10;;;-4.20;99.90;;;-5.45;100.00;97682.72;5006231;28;20493;-36
2023/01/21 04:02:35;;;;;;;11.32;6.72;;;-4.20;99.90;;;-5.67;100.00;97645.19;5024933;28;20073;-36
2023/01/21 04:05:01;;;;;;;15.55;6.75;;;-4.20;99.90;;;-5.43;100.00;97693.91;5022178;28;20577;-36
2023/01/21 04:07:26;;;;;;;10.65;6.30;;;-4.20;99.90;;;-5.43;100.00;97691.34;5018367;28;20033;-36
2023/01/21 04:09:52;;;;;;;12.80;6.50;;;-4.20;99.90;;;-5.48;100.00;97698.03;5018328;28;20108;-36
2023/01/21 04:12:18;;;;;;;11.93;6.88;;;-4.20;99.90;;;-5.49;100.00;97693.69;5028026;28;20492;-36
2023/01/21 04:14:44;;;;;;;11.43;6.80;;;-4.30;99.90;;;-5.51;100.00;97692.78;5024663;28;20033;-36
2023/01/21 04:17:10;;;;;;;13.10;7.15;;;-4.30;99.90;;;-5.53;100.00;97697.00;5023194;28;20030;-36
2023/01/21 04:19:35;;;;;;;10.90;6.70;;;-4.40;99.90;;;-5.58;100.00;97690.03;5024192;28;20124;-36
2023/01/21 04:22:01;;;;;;;12.20;6.40;;;-4.40;99.90;;;-5.59;100.00;97696.00;5023344;28;20041;-36
2023/01/21 04:24:27;;;;;;;12.35;7.05;;;-4.40;99.90;;;-5.60;100.00;97699.41;5016405;28;20428;-36
2023/01/21 04:26:53;;;;;;;11.90;6.70;;;-4.40;99.90;;;-5.66;100.00;97683.78;5023702;28;20095;-36
2023/01/21 04:29:19;;;;;;;15.88;6.70;;;-4.40;99.90;;;-5.59;100.00;97695.13;5019944;28;20125;-36
2023/01/21 04:31:45;;;;;;;10.07;6.53;;;-4.40;99.90;;;-5.63;100.00;97699.31;5018548;28;20341;-36
2023/01/21 04:34:11;;;;;;;10.50;6.20;;;-4.40;99.90;;;-5.66;100.00;97703.47;5020184;28;20120;-36
2023/01/21 04:36:36;;;;;;;11.90;6.38;;;-4.40;99.90;;;-5.65;100.00;97702.63;5019785;28;20119;-35
2023/01/21 04:39:02;;;;;;;10.13;6.10;;;-4.40;99.90;;;-5.65;100.00;97710.34;5021203;28;20039;-36
2023/01/21 04:41:28;;;;;;;11.10;5.85;;;-4.40;99.90;;;-5.71;100.00;97705.00;5021917;28;20516;-36
2023/01/21 04:43:54;;;;;;;13.57;7.07;;;-4.40;99.90;;;-5.73;100.00;97707.53;5021897;28;20120;-35
2023/01/21 04:46:19;;;;;;;11.70;6.53;;;-4.50;99.90;;;-5.97;100.00;97676.84;5002550;28;20045;-35
2023/01/21 04:48:45;;;;;;;14.38;6.75;;;-4.50;99.90;;;-5.77;100.00;97713.41;5022163;28;20029;-35
2023/01/21 04:51:11;;;;;;;10.27;6.53;;;-4.50;99.90;;;-5.76;100.00;97712.56;5025090;28;20485;-35
2023/01/21 04:53:36;;;;;;;11.15;6.40;;;-4.50;99.90;;;-5.79;100.00;97712.50;5011973;28;20039;-36
2023/01/21 04:56:02;;;;;;;11.32;6.50;;;-4.50;99.90;;;-5.80;100.00;97706.47;5016898;28;20676;-35
2023/01/21 04:58:28;;;;;;;15.38;6.90;;;-4.60;99.90;;;-5.78;100.00;97714.22;5023255;28;20049;-35
2023/01/21 05:00:54;;;;;;;13.77;6.82;;;-4.60;99.90;;;-5.80;100.00;97713.31;5016900;28;20029;-35
2023/01/21 05:03:20;;;;;;;11.05;6.88;;;-4.50;99.90;;;-5.83;100.00;97715.75;5016130;28;20550;-35
2023/01/21 05:05:46;;;;;;;10.57;6.70;;;-4.60;99.90;;;-5.83;100.00;97723.47;5001092;28;20049;-35
2023/01/21 05:08:12;;;;;;;12.80;6.88;;;-4.60;99.90;;;-5.88;100.00;97719.91;5021606;28;20041;-36
2023/01/21 05:10:37;;;;;;;13.63;7.30;;;-4.60;99.90;;;-5.98;100.00;97717.03;5019556;28;20029;-36
2023/01/21 05:13:03;;;;;;;11.75;7.55;;;-4.60;99.90;;;-6.08;100.00;97721.81;5021362;28;20536;-36
2023/01/21 05:15:29;;;;;;;11.82;7.18;;;-4.60;99.90;;;-6.10;100.00;97710.63;4987128;28;20650;-35
2023/01/21 05:17:55;;;;;;;12.60;6.90;;;-4.70;99.90;;;-6.16;100.00;97719.00;5012768;28;20044;-35
2023/01/21 05:20:21;;;;;;;10.65;6.40;;;-4.70;99.90;;;-6.16;100.00;97730.13;5025150;28;20040;-35
2023/01/21 05:22:47;;;;;;;11.80;7.03;;;-4.80;99.90;;;-6.12;100.00;97727.69;5019092;28;20049;-35
2023/01/21 05:25:14;;;;;;;12.95;6.78;;;-4.80;99.90;;;-6.10;100.00;97737.19;4997446;28;20029;-35
2023/01/21 05:27:40;;;;;;;9.65;6.53;;;-4.80;99.90;;;-6.11;100.00;97735.44;5017950;28;20029;-35
2023/01/21 05:30:07;;;;;;;12.32;6.43;;;-4.90;99.90;;;-6.10;100.00;97739.78;5019337;28;20048;-35
2023/01/21 05:32:35;;;;;;;12.13;6.70;;;-4.90;99.90;;;-6.08;100.00;97735.56;5024277;28;20044;-35
2023/01/21 05:35:03;;;;;;;13.63;6.95;;;-4.90;99.90;;;-6.07;100.00;97731.28;5020098;28;20032;-36
2023/01/21 05:37:28;;;;;;;16.17;7.88;;;-4.90;99.90;;;-6.12;100.00;97740.53;5020128;28;20037;-36
2023/01/21 05:39:54;;;;;;;14.20;7.70;;;-4.80;99.90;;;-6.12;100.00;97740.53;5007295;28;20128;-36
2023/01/21 05:42:20;;;;;;;12.30;7.28;;;-4.80;99.90;;;-6.08;100.00;97743.25;5024830;28;20045;-36
2023/01/21 05:44:45;;;;;;;9.98;6.35;;;-4.80;99.90;;;-6.12;100.00;97741.38;5020878;28;20033;-36
2023/01/21 05:47:11;;;;;;;11.50;6.53;;;-4.80;99.90;;;-6.10;100.00;97744.91;5019670;28;20075;-36
2023/01/21 05:49:37;;;;;;;12.65;7.25;;;-4.80;99.90;;;-6.13;100.00;97739.66;5025387;28;20064;-36
2023/01/21 05:52:02;;;;;;;13.63;7.32;;;-4.80;99.90;;;-6.07;100.00;97749.25;5025868;28;20033;-36
2023/01/21 05:54:28;;;;;;;13.55;7.82;;;-4.80;99.90;;;-6.09;100.00;97763.75;5025562;28;20453;-35
2023/01/21 05:56:54;;;;;;;12.45;6.78;;;-4.80;99.90;;;-6.08;100.00;97760.34;5015642;28;20034;-35
2023/01/21 05:59:20;;;;;;;13.23;7.47;;;-4.80;99.90;;;-6.16;100.00;97762.66;5018501;28;20049;-35
2023/01/21 06:01:45;;;;;;;15.43;7.38;;;-4.80;99.90;;;-6.18;100.00;97754.03;5022936;28;20041;-36
2023/01/21 06:04:11;;;;;;;12.60;7.95;;;-4.80;99.90;;;-6.09;100.00;97764.59;5024704;28;20040;-36
2023/01/21 06:06:37;;;;;;;12.55;7.38;;;-4.70;99.90;;;-6.00;100.00;97754.66;5000365;28;20501;-36
2023/01/21 06:09:02;;;;;;;12.27;7.28;;;-4.70;99.90;;;-5.84;100.00;97773.13;5022136;28;20033;-36
2023/01/21 06:11:28;;;;;;;15.25;7.82;;;-4.60;99.90;;;-5.78;100.00;97770.75;5024155;28;20092;-36
2023/01/21 06:13:54;;;;;;;17.13;9.38;;;-4.50;99.90;;;-5.72;100.00;97775.19;5023025;28;20040;-35
2023/01/21 06:16:19;;;;;;;15.43;8.85;;;-4.40;99.90;;;-5.63;100.00;97778.97;5019932;28;20033;-36
2023/01/21 06:18:45;;;;;;;16.85;9.35;;;-4.30;99.90;;;-5.58;100.00;97777.41;5040599;22;20797;-35
2023/01/21 06:21:11;;;;;;;16.83;9.55;;;-4.20;99.90;;;-5.54;100.00;97774.91;5031010;28;20029;-35
2023/01/21 06:23:37;;;;;;;17.80;9.75;;;-4.20;99.90;;;-5.51;100.00;97775.91;5026877;28;20094;-35
2023/01/21 06:26:03;;;;;;;17.85;9.70;;;-4.10;99.90;;;-5.44;100.00;97777.84;5027907;28;20029;-35
2023/01/21 06:28:29;;;;;;;17.27;10.02;;;-4.10;99.90;;;-5.29;100.00;97790.31;5026492;28;20059;-36
2023/01/21 06:30:55;;;;;;;24.75;12.00;;;-4.00;99.90;;;-5.31;100.00;97779.13;5025567;28;20624;-35
2023/01/21 06:33:20;;;;;;;20.88;10.85;;;-4.00;99.90;;;-5.34;100.00;97773.88;5013530;28;20025;-36
2023/01/21 06:35:46;;;;;;;21.60;12.23;;;-3.90;99.90;;;-5.45;100.00;97760.69;5027349;28;20052;-36
2023/01/21 06:38:13;;;;;;;22.98;13.10;;;-3.90;99.90;;;-5.16;100.00;97789.00;5028113;28;20037;-35
2023/01/21 06:40:38;;;;;;;21.90;11.55;;;-3.90;99.90;;;-5.09;100.00;97793.50;5028543;28;20231;-35
2023/01/21 06:43:04;;;;;;;22.88;12.57;;;-3.80;99.90;;;-5.03;100.00;97803.13;5026558;28;20037;-36
2023/01/21 06:45:30;;;;;;;19.45;11.55;;;-3.70;99.90;;;-5.01;100.00;97804.94;5027716;28;20041;-36
2023/01/21 06:47:55;;;;;;;27.20;14.85;;;-3.70;99.90;;;-5.02;100.00;97817.72;5025191;28;20124;-36
2023/01/21 06:50:21;;;;;;;24.73;13.88;;;-3.70;99.90;;;-4.91;100.00;97820.63;5026024;28;20051;-36
2023/01/21 06:52:48;;;;;;;27.10;14.48;;;-3.70;99.90;;;-4.89;100.00;97811.25;5027724;28;20408;-37
2023/01/21 06:55:15;;;;;;;29.65;16.23;;;-3.60;99.90;;;-4.82;100.00;97820.91;5027437;28;20559;-37
2023/01/21 06:57:42;;;;;;;31.20;15.45;;;-3.60;99.90;;;-4.89;100.00;97827.56;5027144;28;20111;-36
2023/01/21 07:00:13;;;;;;;28.80;15.68;;;-3.60;99.90;;;-4.87;100.00;97828.47;5027512;28;20032;-36
2023/01/21 07:02:39;;;;;;;30.33;15.68;;;-3.60;99.90;;;-4.86;100.00;97832.81;5028301;28;20038;-36
2023/01/21 07:05:05;;;;;;;30.55;15.93;;;-3.60;99.90;;;-4.85;100.00;97831.97;5026792;28;20428;-36
2023/01/21 07:07:31;;;;;;;31.17;16.42;;;-3.50;99.90;;;-4.80;100.00;97835.56;5029076;28;20033;-36
2023/01/21 07:09:56;;;;;;;31.98;16.27;;;-3.50;99.90;;;-4.85;100.00;97841.38;5024725;28;21365;-36
2023/01/21 07:12:22;;;;;;;37.88;16.70;;;-3.50;99.90;;;-4.84;100.00;97848.31;5030049;28;20037;-36
2023/01/21 07:14:48;;;;;;;28.60;15.45;;;-3.50;99.90;;;-4.76;100.00;97848.53;5028843;28;20099;-36
2023/01/21 07:17:15;;;;;;;31.67;18.02;;;-3.50;99.90;;;-4.63;100.00;97855.78;5026438;28;20341;-36
2023/01/21 07:19:40;;;;;;;35.15;17.80;;;-3.40;99.90;;;-4.76;100.00;97854.53;5026039;28;20033;-36
2023/01/21 07:22:06;;;;;;;31.95;16.95;;;-3.40;99.90;;;-4.82;100.00;97833.78;5018411;28;20030;-36
2023/01/21 07:24:32;;;;;;;32.78;18.02;;;-3.40;99.90;;;-4.68;100.00;97857.38;5020790;28;20044;-36
2023/01/21 07:26:58;;;;;;;32.67;17.88;;;-3.30;99.90;;;-4.66;100.00;97842.84;5021638;28;20044;-36
2023/01/21 07:29:24;;;;;;;34.35;17.70;;;-3.30;99.90;;;-4.48;100.00;97870.81;5023327;28;20025;-36
2023/01/21 07:31:50;;;;;;;38.25;18.48;;;-3.20;99.90;;;-4.47;100.00;97883.75;5019302;28;20025;-36
2023/01/21 07:34:16;;;;;;;32.97;18.23;;;-3.20;99.90;;;-4.48;100.00;97881.13;5028175;28;20599;-36
2023/01/21 07:36:42;;;;;;;36.90;18.00;;;-3.20;99.90;;;-4.38;100.00;97890.84;5021981;28;20484;-36
2023/01/21 07:39:08;;;;;;;32.03;17.50;;;-3.10;99.90;;;-4.34;100.00;97892.72;5026378;28;20044;-36
2023/01/21 07:41:33;;;;;;;38.47;19.13;;;-3.10;99.90;;;-4.46;100.00;97889.75;5027080;28;20068;-36
2023/01/21 07:43:59;;;;;;;35.00;19.45;;;-3.10;99.90;;;-4.48;100.00;97891.44;5023019;28;20037;-36
2023/01/21 07:46:25;;;;;;;38.55;19.88;;;-3.10;99.90;;;-4.52;100.00;97885.31;5029537;28;20044;-36
2023/01/21 07:48:52;;;;;;;37.95;19.15;;;-3.10;99.90;;;-4.40;100.00;97892.50;5029465;28;20699;-36
2023/01/21 07:51:18;;;;;;;36.88;18.90;;;-3.10;99.90;;;-4.43;100.00;97903.59;5029015;28;20108;-36
2023/01/21 07:53:44;;;;;;;32.97;18.23;;;-3.10;99.90;;;-4.38;100.00;97887.41;5010695;28;20118;-36
2023/01/21 07:56:10;;;;;;;38.95;18.63;;;-3.10;99.90;;;-4.35;100.00;97895.22;5029625;28;20436;-36
2023/01/21 07:58:36;;;;;;;36.15;17.75;;;-3.00;99.90;;;-4.32;100.00;97900.47;5031243;28;20067;-36
2023/01/21 08:01:07;;;;;;;35.45;18.30;;;-3.00;99.90;;;-4.32;100.00;97906.50;5022975;28;20115;-37
2023/01/21 08:03:33;;;;;;;39.33;19.35;;;-3.00;99.90;;;-4.35;100.00;97908.09;5029304;28;20036;-37
2023/01/21 08:05:59;;;;;;;38.20;18.92;;;-3.10;99.90;;;-4.38;100.00;97897.72;5031834;28;20444;-36
2023/01/21 08:08:26;;;;;;;34.88;18.27;;;-3.00;99.90;;;-4.37;100.00;97908.06;5023849;28;20063;-37
2023/01/21 08:10:53;;;;;;;37.70;18.40;;;-3.00;99.90;;;-4.38;100.00;97897.72;5030443;28;20061;-36
2023/01/21 08:13:19;;;;;;;36.65;17.35;;;-3.00;99.90;;;-4.44;100.00;97896.69;5026903;28;20033;-36
2023/01/21 08:15:53;;;;;;;39.65;20.27;;;-3.10;99.90;;;-4.37;100.00;97900.34;5028485;28;20048;-36
2023/01/21 08:18:21;;;;;;;32.45;16.65;;;-3.10;99.90;;;-4.25;100.00;97902.41;5030002;28;20128;-36
2023/01/21 08:20:47;;;;;;;34.78;16.73;;;-3.00;99.90;;;-4.18;100.00;97898.28;5026734;28;20029;-36
2023/01/21 08:23:13;;;;;;;33.72;17.60;;;-2.90;99.90;;;-4.07;100.00;97913.25;5028817;28;20420;-36
2023/01/21 08:25:39;;;;;;;41.10;18.48;;;-2.80;99.90;;;-4.06;100.00;97920.13;5025055;28;20760;-36
2023/01/21 08:28:04;;;;;;;37.63;18.08;;;-2.80;99.90;;;-3.99;100.00;97904.84;5029985;28;20536;-36
2023/01/21 08:30:30;;;;;;;31.75;17.25;;;-2.70;99.90;;;-3.85;100.00;97898.38;5032259;28;20025;-36
2023/01/21 08:32:56;;;;;;;38.35;18.30;;;-2.60;99.90;;;-3.92;100.00;97912.78;5023713;28;20454;-37
2023/01/21 08:35:22;;;;;;;34.85;16.52;;;-2.60;99.90;;;-3.91;100.00;97900.78;5032840;28;20533;-36
2023/01/21 08:37:48;;;;;;;36.05;18.13;;;-2.60;99.90;;;-3.81;100.00;97912.22;5036047;28;20033;-36
2023/01/21 08:40:14;;;;;;;34.30;17.60;;;-2.50;99.90;;;-3.84;100.00;97913.91;5038544;28;20039;-36
2023/01/21 08:42:40;;;;;;;32.95;16.05;;;-2.50;99.90;;;-3.84;100.00;97900.13;5034117;28;20597;-36
2023/01/21 08:45:06;;;;;;;36.60;17.15;;;-2.50;99.90;;;-3.84;100.00;97903.59;5028938;28;20037;-36
2023/01/21 08:47:32;;;;;;;30.98;16.60;;;-2.50;99.90;;;-3.76;100.00;97908.94;5035758;28;20028;-36
2023/01/21 08:49:58;;;;;;;33.83;17.25;;;-2.50;99.90;;;-3.78;100.00;97897.72;5032117;28;20560;-36
2023/01/21 08:52:23;;;;;;;33.50;17.58;;;-2.50;99.90;;;-3.76;100.00;97908.09;5034645;28;20503;-36
2023/01/21 08:54:49;;;;;;;33.17;17.17;;;-2.50;99.90;;;-3.78;100.00;97915.75;5031794;28;20059;-36
2023/01/21 08:57:15;;;;;;;32.47;17.27;;;-2.50;99.90;;;-3.77;100.00;97898.59;5031097;28;20037;-36
2023/01/21 08:59:41;;;;;;;36.20;17.75;;;-2.40;99.90;;;-3.58;100.00;97911.16;5029795;28;20112;-36
2023/01/21 09:02:09;;;;;;;33.03;17.65;;;-2.40;99.90;;;-3.62;100.00;97903.28;5032234;28;20115;-36
2023/01/21 09:04:35;;;;;;;34.95;17.92;;;-2.30;99.90;;;-3.59;100.00;97911.09;5030003;28;20033;-36
2023/01/21 09:07:00;;;;;;;34.70;17.13;;;-2.30;99.90;;;-3.43;100.00;97910.66;5029926;28;20041;-36
2023/01/21 09:09:26;;;;;;;40.75;18.55;;;-2.20;99.90;;;-3.37;100.00;97908.28;5025043;28;20124;-36
2023/01/21 09:11:52;;;;;;;39.75;18.52;;;-2.10;99.90;;;-3.45;100.00;97899.44;5029612;28;20036;-36
2023/01/21 09:14:19;;;;;;;31.88;16.40;;;-2.10;99.90;;;-3.35;100.00;97890.25;5016275;28;20448;-36
2023/01/21 09:16:48;;;;;;;39.45;18.90;;;-2.00;99.90;;;-3.19;100.00;97907.00;5029081;28;20131;-36
2023/01/21 09:19:13;;;;;;;36.80;18.17;;;-1.90;99.90;;;-3.10;100.00;97904.66;5031588;28;20041;-36
2023/01/21 09:21:39;;;;;;;39.03;18.67;;;-1.80;99.90;;;-2.93;100.00;97908.50;5029321;28;20044;-37
2023/01/21 09:24:05;;;;;;;32.97;17.13;;;-1.70;99.90;;;-2.72;100.00;97908.16;5024094;28;20044;-37
2023/01/21 09:26:31;;;;;;;39.45;19.02;;;-1.50;99.90;;;-2.67;100.00;97910.84;5015447;28;20581;-37
2023/01/21 09:28:59;;;;;;;34.50;18.15;;;-1.50;99.90;;;-2.66;100.00;97915.16;5025808;28;20033;-37
2023/01/21 09:31:27;;;;;;;34.80;17.00;;;-1.40;99.90;;;-2.41;100.00;97915.75;5027061;28;20052;-37
2023/01/21 09:34:01;;;;;;;35.22;17.70;;;-1.30;99.90;;;-2.35;100.00;97914.16;5018701;28;20029;-37
2023/01/21 09:36:29;;;;;;;28.30;15.70;;;-1.10;99.90;;;-2.16;100.00;97922.31;5025335;28;20385;-37
2023/01/21 09:38:56;;;;;;;28.88;15.55;;;-1.00;99.90;;;-2.05;100.00;97928.56;5025761;28;20032;-36
2023/01/21 09:41:24;;;;;;;29.15;14.88;;;-0.90;99.90;;;-1.98;100.00;97932.16;5025059;28;20033;-36
2023/01/21 09:44:01;;;;;;;27.55;13.85;;;-0.80;99.90;;;-1.98;100.00;97933.03;5024909;28;21855;-37
2023/01/21 09:46:40;;;;;;;29.98;15.25;;;-0.80;99.90;;;-2.02;100.00;97941.56;5007789;28;20033;-37
2023/01/21 09:49:19;;;;;;;25.95;13.80;;;-0.80;99.90;;;-1.99;100.00;97940.75;5009197;28;20439;-37
2023/01/21 09:51:58;;;;;;;30.23;14.88;;;-0.80;99.90;;;-2.03;100.00;97944.13;5026473;28;20466;-37
2023/01/21 09:54:29;;;;;;;26.10;14.75;;;-0.80;99.90;;;-2.04;100.00;97940.69;5008512;28;20028;-37
2023/01/21 09:57:29;;;;;;;27.67;13.98;;;-0.80;99.90;;;-2.07;100.00;97947.50;5016120;28;20040;-37
2023/01/21 10:00:18;;;;;;;27.27;13.80;;;-0.80;99.90;;;-2.05;100.00;97938.06;5010874;28;20029;-37
2023/01/21 10:03:04;;;;;;;28.13;14.15;;;-0.80;99.90;;;-2.19;100.00;97914.50;5004281;28;20108;-37
2023/01/21 10:06:08;;;;;;;28.73;14.68;;;-0.90;99.90;;;-1.95;100.00;97938.28;5017725;28;20115;-37
2023/01/21 10:08:58;;;;;;;27.45;13.20;;;-0.80;99.90;;;-1.95;100.00;97933.13;5021056;28;20071;-36
2023/01/21 10:12:05;;;;;;;25.67;13.80;;;-0.70;99.90;;;-2.16;100.00;97943.84;5035340;28;20053;-37
2023/01/21 10:15:00;;;;;;;25.70;13.88;;;-0.80;99.90;;;-1.92;100.00;97928.00;5031884;28;20041;-37
2023/01/21 10:17:53;;;;;;;27.75;14.07;;;-0.80;99.90;;;-1.90;100.00;97929.75;5032725;28;20028;-36
2023/01/21 10:20:31;;;;;;;26.80;14.63;;;-0.80;99.90;;;-1.91;100.00;97926.28;5032203;28;20053;-37
2023/01/21 10:23:13;;;;;;;25.88;13.77;;;-0.70;99.90;;;-2.00;100.00;97908.00;5000592;28;20033;-37